sensor_id;sensor_type;location;lat;lon;timestamp;pressure;altitude;pressure_sealevel;temperature;humidity
51359;BME280;37448;51.588;7.248;2023-04-07T00:00:57;100750.53;;;6.17;98.38
51359;BME280;37448;51.588;7.248;2023-04-07T00:02:58;100752.25;;;6.18;98.14
51359;BME280;37448;51.588;7.248;2023-04-07T00:04:58;100757.44;;;6.18;97.96
51359;BME280;37448;51.588;7.248;2023-04-07T00:06:59;100753.97;;;6.19;98.40
51359;BME280;37448;51.588;7.248;2023-04-07T00:08:59;100747.94;;;6.20;98.24
51359;BME280;37448;51.588;7.248;2023-04-07T00:11:00;100751.38;;;6.19;98.60
51359;BME280;37448;51.588;7.248;2023-04-07T00:13:00;100748.81;;;6.16;98.23
51359;BME280;37448;51.588;7.248;2023-04-07T00:15:01;100750.53;;;6.20;98.43
51359;BME280;37448;51.588;7.248;2023-04-07T00:17:01;100749.63;;;6.23;98.28
51359;BME280;37448;51.588;7.248;2023-04-07T00:19:02;100753.09;;;6.25;98.31
51359;BME280;37448;51.588;7.248;2023-04-07T00:21:02;100748.78;;;6.25;98.26
51359;BME280;37448;51.588;7.248;2023-04-07T00:23:02;100749.63;;;6.27;98.81
51359;BME280;37448;51.588;7.248;2023-04-07T00:25:03;100752.22;;;6.27;99.00
51359;BME280;37448;51.588;7.248;2023-04-07T00:27:04;100744.44;;;6.26;98.40
51359;BME280;37448;51.588;7.248;2023-04-07T00:29:04;100740.13;;;6.23;98.72
51359;BME280;37448;51.588;7.248;2023-04-07T00:31:05;100733.22;;;6.25;98.73
51359;BME280;37448;51.588;7.248;2023-04-07T00:33:05;100740.13;;;6.26;98.55
51359;BME280;37448;51.588;7.248;2023-04-07T00:35:06;100740.97;;;6.27;99.05
51359;BME280;37448;51.588;7.248;2023-04-07T00:37:06;100743.59;;;6.28;98.94
51359;BME280;37448;51.588;7.248;2023-04-07T00:39:07;100739.28;;;6.29;98.65
51359;BME280;37448;51.588;7.248;2023-04-07T00:41:09;100733.22;;;6.28;98.82
51359;BME280;37448;51.588;7.248;2023-04-07T00:43:09;100734.94;;;6.26;98.62
51359;BME280;37448;51.588;7.248;2023-04-07T00:45:10;100743.59;;;6.25;98.79
51359;BME280;37448;51.588;7.248;2023-04-07T00:47:11;100740.13;;;6.23;98.91
51359;BME280;37448;51.588;7.248;2023-04-07T00:49:12;100739.28;;;6.29;98.99
51359;BME280;37448;51.588;7.248;2023-04-07T00:51:12;100742.72;;;6.29;98.62
51359;BME280;37448;51.588;7.248;2023-04-07T00:53:14;100738.41;;;6.25;98.72
51359;BME280;37448;51.588;7.248;2023-04-07T00:55:14;100738.38;;;6.28;98.71
51359;BME280;37448;51.588;7.248;2023-04-07T00:57:15;100734.94;;;6.26;98.97
51359;BME280;37448;51.588;7.248;2023-04-07T00:59:16;100734.09;;;6.24;98.68
51359;BME280;37448;51.588;7.248;2023-04-07T01:01:29;100726.28;;;6.27;98.89
51359;BME280;37448;51.588;7.248;2023-04-07T01:03:38;100727.16;;;6.29;98.96
51359;BME280;37448;51.588;7.248;2023-04-07T01:05:52;100727.16;;;6.31;99.13
51359;BME280;37448;51.588;7.248;2023-04-07T01:08:14;100721.97;;;6.29;99.31
51359;BME280;37448;51.588;7.248;2023-04-07T01:10:34;100721.97;;;6.29;98.97
51359;BME280;37448;51.588;7.248;2023-04-07T01:14:59;100716.78;;;6.31;99.16
51359;BME280;37448;51.588;7.248;2023-04-07T01:17:12;100721.09;;;6.30;99.02
51359;BME280;37448;51.588;7.248;2023-04-07T01:19:32;100725.41;;;6.33;99.36
51359;BME280;37448;51.588;7.248;2023-04-07T01:21:34;100719.38;;;6.34;99.13
51359;BME280;37448;51.588;7.248;2023-04-07T01:24:03;100723.69;;;6.30;99.27
51359;BME280;37448;51.588;7.248;2023-04-07T01:26:23;100716.75;;;6.32;99.20
51359;BME280;37448;51.588;7.248;2023-04-07T01:28:40;100709.00;;;6.34;99.44
51359;BME280;37448;51.588;7.248;2023-04-07T01:30:44;100711.59;;;6.34;99.52
51359;BME280;37448;51.588;7.248;2023-04-07T01:32:49;100709.00;;;6.34;99.19
51359;BME280;37448;51.588;7.248;2023-04-07T01:34:51;100713.28;;;6.37;99.27
51359;BME280;37448;51.588;7.248;2023-04-07T01:36:53;100715.03;;;6.36;99.87
51359;BME280;37448;51.588;7.248;2023-04-07T01:38:54;100714.16;;;6.37;99.73
51359;BME280;37448;51.588;7.248;2023-04-07T01:40:55;100715.88;;;6.37;99.35
51359;BME280;37448;51.588;7.248;2023-04-07T01:42:56;100708.97;;;6.36;99.47
51359;BME280;37448;51.588;7.248;2023-04-07T01:44:58;100721.09;;;6.30;99.48
51359;BME280;37448;51.588;7.248;2023-04-07T01:47:00;100710.72;;;6.34;99.33
51359;BME280;37448;51.588;7.248;2023-04-07T01:49:02;100712.41;;;6.38;99.64
51359;BME280;37448;51.588;7.248;2023-04-07T01:51:03;100717.59;;;6.38;99.87
51359;BME280;37448;51.588;7.248;2023-04-07T01:53:06;100711.56;;;6.37;99.90
51359;BME280;37448;51.588;7.248;2023-04-07T01:55:08;100704.63;;;6.38;99.56
51359;BME280;37448;51.588;7.248;2023-04-07T01:57:13;100707.22;;;6.38;99.67
51359;BME280;37448;51.588;7.248;2023-04-07T01:59:16;100710.69;;;6.37;99.60
51359;BME280;37448;51.588;7.248;2023-04-07T02:01:17;100704.63;;;6.38;99.97
51359;BME280;37448;51.588;7.248;2023-04-07T02:03:22;100696.84;;;6.38;99.49
51359;BME280;37448;51.588;7.248;2023-04-07T02:05:23;100702.06;;;6.41;99.84
51359;BME280;37448;51.588;7.248;2023-04-07T02:07:45;100699.47;;;6.36;99.79
51359;BME280;37448;51.588;7.248;2023-04-07T02:09:50;100694.28;;;6.39;99.63
51359;BME280;37448;51.588;7.248;2023-04-07T02:11:54;100700.34;;;6.40;99.89
51359;BME280;37448;51.588;7.248;2023-04-07T02:13:59;100702.91;;;6.41;99.66
51359;BME280;37448;51.588;7.248;2023-04-07T02:16:01;100697.75;;;6.40;99.71
51359;BME280;37448;51.588;7.248;2023-04-07T02:18:02;100700.34;;;6.40;99.99
51359;BME280;37448;51.588;7.248;2023-04-07T02:20:05;100702.91;;;6.37;99.99
51359;BME280;37448;51.588;7.248;2023-04-07T02:22:07;100696.84;;;6.42;99.75
51359;BME280;37448;51.588;7.248;2023-04-07T02:24:10;100701.16;;;6.39;99.95
51359;BME280;37448;51.588;7.248;2023-04-07T02:26:11;100699.47;;;6.41;99.97
51359;BME280;37448;51.588;7.248;2023-04-07T02:28:11;100703.78;;;6.42;100.00
51359;BME280;37448;51.588;7.248;2023-04-07T02:30:13;100696.84;;;6.44;100.00
51359;BME280;37448;51.588;7.248;2023-04-07T02:32:13;100703.78;;;6.45;100.00
51359;BME280;37448;51.588;7.248;2023-04-07T02:34:13;100702.03;;;6.44;100.00
51359;BME280;37448;51.588;7.248;2023-04-07T02:36:14;100702.91;;;6.43;100.00
51359;BME280;37448;51.588;7.248;2023-04-07T02:38:14;100702.03;;;6.47;99.60
51359;BME280;37448;51.588;7.248;2023-04-07T02:40:15;100701.16;;;6.46;100.00
51359;BME280;37448;51.588;7.248;2023-04-07T02:42:15;100708.06;;;6.49;100.00
51359;BME280;37448;51.588;7.248;2023-04-07T02:44:16;100702.88;;;6.51;100.00
51359;BME280;37448;51.588;7.248;2023-04-07T02:46:16;100699.41;;;6.49;100.00
51359;BME280;37448;51.588;7.248;2023-04-07T02:48:16;100702.00;;;6.50;100.00
51359;BME280;37448;51.588;7.248;2023-04-07T02:50:17;100703.75;;;6.48;100.00
51359;BME280;37448;51.588;7.248;2023-04-07T02:52:17;100714.13;;;6.51;100.00
51359;BME280;37448;51.588;7.248;2023-04-07T02:54:18;100706.34;;;6.53;100.00
51359;BME280;37448;51.588;7.248;2023-04-07T02:56:18;100706.34;;;6.53;100.00
51359;BME280;37448;51.588;7.248;2023-04-07T02:58:19;100703.72;;;6.54;100.00
51359;BME280;37448;51.588;7.248;2023-04-07T03:00:19;100707.19;;;6.56;100.00
51359;BME280;37448;51.588;7.248;2023-04-07T03:02:31;100707.19;;;6.56;100.00
51359;BME280;37448;51.588;7.248;2023-04-07T03:04:31;100712.38;;;6.49;100.00
51359;BME280;37448;51.588;7.248;2023-04-07T03:06:33;100708.94;;;6.48;100.00
51359;BME280;37448;51.588;7.248;2023-04-07T03:08:47;100708.06;;;6.52;100.00
51359;BME280;37448;51.588;7.248;2023-04-07T03:10:47;100710.66;;;6.52;100.00
51359;BME280;37448;51.588;7.248;2023-04-07T03:12:49;100702.00;;;6.55;100.00
51359;BME280;37448;51.588;7.248;2023-04-07T03:14:50;100702.00;;;6.56;100.00
51359;BME280;37448;51.588;7.248;2023-04-07T03:16:50;100703.72;;;6.57;100.00
51359;BME280;37448;51.588;7.248;2023-04-07T03:18:51;100703.72;;;6.57;100.00
51359;BME280;37448;51.588;7.248;2023-04-07T03:20:51;100706.31;;;6.59;100.00
51359;BME280;37448;51.588;7.248;2023-04-07T03:22:52;100702.84;;;6.58;100.00
51359;BME280;37448;51.588;7.248;2023-04-07T03:24:59;100703.69;;;6.60;100.00
51359;BME280;37448;51.588;7.248;2023-04-07T03:27:00;100706.28;;;6.62;100.00
51359;BME280;37448;51.588;7.248;2023-04-07T03:29:11;100710.59;;;6.61;100.00
51359;BME280;37448;51.588;7.248;2023-04-07T03:31:14;100705.44;;;6.63;100.00
51359;BME280;37448;51.588;7.248;2023-04-07T03:33:15;100708.03;;;6.65;100.00
51359;BME280;37448;51.588;7.248;2023-04-07T03:35:15;100707.16;;;6.66;100.00
51359;BME280;37448;51.588;7.248;2023-04-07T03:37:17;100713.19;;;6.68;100.00
51359;BME280;37448;51.588;7.248;2023-04-07T03:39:18;100711.47;;;6.70;100.00
51359;BME280;37448;51.588;7.248;2023-04-07T03:41:19;100709.72;;;6.69;100.00
51359;BME280;37448;51.588;7.248;2023-04-07T03:43:21;100712.34;;;6.69;100.00
51359;BME280;37448;51.588;7.248;2023-04-07T03:45:21;100710.59;;;6.71;100.00
51359;BME280;37448;51.588;7.248;2023-04-07T03:47:24;100714.06;;;6.70;100.00
51359;BME280;37448;51.588;7.248;2023-04-07T03:49:30;100713.19;;;6.69;100.00
51359;BME280;37448;51.588;7.248;2023-04-07T03:51:34;100712.31;;;6.70;100.00
51359;BME280;37448;51.588;7.248;2023-04-07T03:53:37;100719.22;;;6.73;100.00
51359;BME280;37448;51.588;7.248;2023-04-07T03:55:49;100716.63;;;6.71;100.00
51359;BME280;37448;51.588;7.248;2023-04-07T03:57:58;100714.94;;;6.64;100.00
51359;BME280;37448;51.588;7.248;2023-04-07T04:00:04;100722.69;;;6.70;100.00
51359;BME280;37448;51.588;7.248;2023-04-07T04:02:17;100714.91;;;6.72;100.00
51359;BME280;37448;51.588;7.248;2023-04-07T04:04:19;100722.69;;;6.72;100.00
51359;BME280;37448;51.588;7.248;2023-04-07T04:06:21;100717.53;;;6.69;100.00
51359;BME280;37448;51.588;7.248;2023-04-07T04:08:22;100721.00;;;6.68;100.00
51359;BME280;37448;51.588;7.248;2023-04-07T04:10:23;100721.00;;;6.68;100.00
51359;BME280;37448;51.588;7.248;2023-04-07T04:12:26;100720.97;;;6.69;100.00
51359;BME280;37448;51.588;7.248;2023-04-07T04:14:38;100725.28;;;6.70;100.00
51359;BME280;37448;51.588;7.248;2023-04-07T04:16:40;100728.75;;;6.69;100.00
51359;BME280;37448;51.588;7.248;2023-04-07T04:18:58;100729.66;;;6.67;100.00
51359;BME280;37448;51.588;7.248;2023-04-07T04:20:59;100723.59;;;6.65;100.00
51359;BME280;37448;51.588;7.248;2023-04-07T04:23:00;100727.91;;;6.66;100.00
51359;BME280;37448;51.588;7.248;2023-04-07T04:25:01;100726.19;;;6.65;100.00
51359;BME280;37448;51.588;7.248;2023-04-07T04:27:02;100730.50;;;6.66;100.00
51359;BME280;37448;51.588;7.248;2023-04-07T04:29:02;100727.91;;;6.66;100.00
51359;BME280;37448;51.588;7.248;2023-04-07T04:31:03;100731.38;;;6.65;100.00
51359;BME280;37448;51.588;7.248;2023-04-07T04:33:08;100737.41;;;6.65;100.00
51359;BME280;37448;51.588;7.248;2023-04-07T04:35:15;100736.56;;;6.63;100.00
51359;BME280;37448;51.588;7.248;2023-04-07T04:37:26;100740.03;;;6.64;100.00
51359;BME280;37448;51.588;7.248;2023-04-07T04:39:27;100746.06;;;6.63;100.00
51359;BME280;37448;51.588;7.248;2023-04-07T04:41:27;100746.94;;;6.63;100.00
51359;BME280;37448;51.588;7.248;2023-04-07T04:43:29;100750.41;;;6.62;100.00
51359;BME280;37448;51.588;7.248;2023-04-07T04:45:29;100752.13;;;6.63;100.00
51359;BME280;37448;51.588;7.248;2023-04-07T04:47:30;100750.41;;;6.64;100.00
51359;BME280;37448;51.588;7.248;2023-04-07T04:49:31;100753.88;;;6.66;100.00
51359;BME280;37448;51.588;7.248;2023-04-07T04:51:34;100755.59;;;6.65;100.00
51359;BME280;37448;51.588;7.248;2023-04-07T04:53:42;100756.47;;;6.66;100.00
51359;BME280;37448;51.588;7.248;2023-04-07T04:55:43;100748.69;;;6.66;100.00
51359;BME280;37448;51.588;7.248;2023-04-07T04:57:49;100760.78;;;6.65;100.00
51359;BME280;37448;51.588;7.248;2023-04-07T04:59:56;100756.47;;;6.66;100.00
51359;BME280;37448;51.588;7.248;2023-04-07T05:01:56;100762.53;;;6.65;100.00
51359;BME280;37448;51.588;7.248;2023-04-07T05:03:57;100759.06;;;6.66;100.00
51359;BME280;37448;51.588;7.248;2023-04-07T05:06:01;100760.81;;;6.64;100.00
51359;BME280;37448;51.588;7.248;2023-04-07T05:08:02;100766.84;;;6.64;100.00
51359;BME280;37448;51.588;7.248;2023-04-07T05:10:07;100772.03;;;6.61;100.00
51359;BME280;37448;51.588;7.248;2023-04-07T05:12:10;100765.97;;;6.60;100.00
51359;BME280;37448;51.588;7.248;2023-04-07T05:14:16;100765.97;;;6.60;100.00
51359;BME280;37448;51.588;7.248;2023-04-07T05:16:23;100761.69;;;6.58;100.00
51359;BME280;37448;51.588;7.248;2023-04-07T05:18:24;100774.63;;;6.56;100.00
51359;BME280;37448;51.588;7.248;2023-04-07T05:20:25;100772.06;;;6.58;100.00
51359;BME280;37448;51.588;7.248;2023-04-07T05:22:26;100778.94;;;6.60;100.00
51359;BME280;37448;51.588;7.248;2023-04-07T05:24:27;100780.69;;;6.58;100.00
51359;BME280;37448;51.588;7.248;2023-04-07T05:26:31;100777.22;;;6.61;100.00
51359;BME280;37448;51.588;7.248;2023-04-07T05:28:33;100779.81;;;6.59;100.00
51359;BME280;37448;51.588;7.248;2023-04-07T05:30:38;100785.00;;;6.59;100.00
51359;BME280;37448;51.588;7.248;2023-04-07T05:32:39;100780.69;;;6.60;100.00
51359;BME280;37448;51.588;7.248;2023-04-07T05:34:47;100793.66;;;6.61;100.00
51359;BME280;37448;51.588;7.248;2023-04-07T05:36:50;100784.16;;;6.59;100.00
51359;BME280;37448;51.588;7.248;2023-04-07T05:38:50;100793.69;;;6.57;100.00
51359;BME280;37448;51.588;7.248;2023-04-07T05:40:52;100789.38;;;6.56;100.00
51359;BME280;37448;51.588;7.248;2023-04-07T05:42:57;100795.41;;;6.56;100.00
51359;BME280;37448;51.588;7.248;2023-04-07T05:44:59;100792.81;;;6.58;100.00
51359;BME280;37448;51.588;7.248;2023-04-07T05:47:00;100797.13;;;6.59;100.00
51359;BME280;37448;51.588;7.248;2023-04-07T05:49:02;100796.28;;;6.60;100.00
51359;BME280;37448;51.588;7.248;2023-04-07T05:51:03;100798.88;;;6.57;100.00
51359;BME280;37448;51.588;7.248;2023-04-07T05:53:04;100796.28;;;6.60;100.00
51359;BME280;37448;51.588;7.248;2023-04-07T05:55:05;100804.03;;;6.61;100.00
51359;BME280;37448;51.588;7.248;2023-04-07T05:57:06;100804.06;;;6.60;100.00
51359;BME280;37448;51.588;7.248;2023-04-07T05:59:07;100805.75;;;6.63;100.00
51359;BME280;37448;51.588;7.248;2023-04-07T06:01:08;100810.09;;;6.62;100.00
51359;BME280;37448;51.588;7.248;2023-04-07T06:03:08;100810.97;;;6.59;100.00
51359;BME280;37448;51.588;7.248;2023-04-07T06:05:20;100813.56;;;6.59;100.00
51359;BME280;37448;51.588;7.248;2023-04-07T06:07:24;100810.09;;;6.60;100.00
51359;BME280;37448;51.588;7.248;2023-04-07T06:09:25;100821.34;;;6.59;100.00
51359;BME280;37448;51.588;7.248;2023-04-07T06:11:25;100820.50;;;6.59;100.00
51359;BME280;37448;51.588;7.248;2023-04-07T06:13:26;100819.63;;;6.58;100.00
51359;BME280;37448;51.588;7.248;2023-04-07T06:15:27;100815.28;;;6.60;100.00
51359;BME280;37448;51.588;7.248;2023-04-07T06:17:27;100821.31;;;6.63;100.00
51359;BME280;37448;51.588;7.248;2023-04-07T06:19:27;100829.13;;;6.63;100.00
51359;BME280;37448;51.588;7.248;2023-04-07T06:21:28;100822.22;;;6.60;100.00
51359;BME280;37448;51.588;7.248;2023-04-07T06:23:29;100825.69;;;6.59;100.00
51359;BME280;37448;51.588;7.248;2023-04-07T06:25:30;100821.34;;;6.56;100.00
51359;BME280;37448;51.588;7.248;2023-04-07T06:27:31;100833.44;;;6.60;100.00
51359;BME280;37448;51.588;7.248;2023-04-07T06:29:32;100832.56;;;6.61;100.00
51359;BME280;37448;51.588;7.248;2023-04-07T06:31:34;100832.56;;;6.61;100.00
51359;BME280;37448;51.588;7.248;2023-04-07T06:33:35;100840.38;;;6.61;100.00
51359;BME280;37448;51.588;7.248;2023-04-07T06:35:35;100831.72;;;6.59;100.00
51359;BME280;37448;51.588;7.248;2023-04-07T06:37:36;100833.47;;;6.57;100.00
51359;BME280;37448;51.588;7.248;2023-04-07T06:39:37;100832.56;;;6.61;100.00
51359;BME280;37448;51.588;7.248;2023-04-07T06:41:37;100839.50;;;6.61;100.00
51359;BME280;37448;51.588;7.248;2023-04-07T06:43:38;100832.59;;;6.60;100.00
51359;BME280;37448;51.588;7.248;2023-04-07T06:45:40;100840.38;;;6.61;100.00
51359;BME280;37448;51.588;7.248;2023-04-07T06:47:41;100842.09;;;6.63;100.00
51359;BME280;37448;51.588;7.248;2023-04-07T06:49:41;100840.38;;;6.65;100.00
51359;BME280;37448;51.588;7.248;2023-04-07T06:51:41;100847.28;;;6.64;100.00
51359;BME280;37448;51.588;7.248;2023-04-07T06:53:42;100849.88;;;6.63;100.00
51359;BME280;37448;51.588;7.248;2023-04-07T06:55:43;100853.34;;;6.66;100.00
51359;BME280;37448;51.588;7.248;2023-04-07T06:57:43;100853.34;;;6.66;100.00
51359;BME280;37448;51.588;7.248;2023-04-07T06:59:44;100854.22;;;6.67;100.00
51359;BME280;37448;51.588;7.248;2023-04-07T07:01:44;100856.78;;;6.68;100.00
51359;BME280;37448;51.588;7.248;2023-04-07T07:03:45;100855.94;;;6.71;100.00
51359;BME280;37448;51.588;7.248;2023-04-07T07:05:46;100854.19;;;6.71;100.00
51359;BME280;37448;51.588;7.248;2023-04-07T07:07:46;100860.25;;;6.72;100.00
51359;BME280;37448;51.588;7.248;2023-04-07T07:09:47;100860.25;;;6.70;100.00
51359;BME280;37448;51.588;7.248;2023-04-07T07:11:47;100863.72;;;6.68;100.00
51359;BME280;37448;51.588;7.248;2023-04-07T07:13:47;100861.13;;;6.71;100.00
51359;BME280;37448;51.588;7.248;2023-04-07T07:15:48;100859.38;;;6.73;100.00
51359;BME280;37448;51.588;7.248;2023-04-07T07:17:49;100860.25;;;6.77;100.00
51359;BME280;37448;51.588;7.248;2023-04-07T07:19:49;100867.19;;;6.78;100.00
51359;BME280;37448;51.588;7.248;2023-04-07T07:21:50;100868.88;;;6.80;100.00
51359;BME280;37448;51.588;7.248;2023-04-07T07:23:50;100869.75;;;6.81;100.00
51359;BME280;37448;51.588;7.248;2023-04-07T07:25:51;100870.63;;;6.83;100.00
51359;BME280;37448;51.588;7.248;2023-04-07T07:27:51;100870.59;;;6.81;100.00
51359;BME280;37448;51.588;7.248;2023-04-07T07:29:52;100874.94;;;6.85;100.00
51359;BME280;37448;51.588;7.248;2023-04-07T07:31:53;100873.22;;;6.87;100.00
51359;BME280;37448;51.588;7.248;2023-04-07T07:33:53;100869.75;;;6.82;100.00
51359;BME280;37448;51.588;7.248;2023-04-07T07:35:53;100876.66;;;6.89;100.00
51359;BME280;37448;51.588;7.248;2023-04-07T07:37:54;100880.13;;;6.90;100.00
51359;BME280;37448;51.588;7.248;2023-04-07T07:39:55;100875.78;;;6.92;100.00
51359;BME280;37448;51.588;7.248;2023-04-07T07:41:55;100885.28;;;6.93;100.00
51359;BME280;37448;51.588;7.248;2023-04-07T07:43:56;100887.91;;;6.95;100.00
51359;BME280;37448;51.588;7.248;2023-04-07T07:45:56;100890.50;;;6.98;100.00
51359;BME280;37448;51.588;7.248;2023-04-07T07:47:57;100898.25;;;6.96;100.00
51359;BME280;37448;51.588;7.248;2023-04-07T07:49:57;100894.81;;;6.96;100.00
51359;BME280;37448;51.588;7.248;2023-04-07T07:51:58;100900.00;;;6.97;100.00
51359;BME280;37448;51.588;7.248;2023-04-07T07:53:58;100900.00;;;6.96;100.00
51359;BME280;37448;51.588;7.248;2023-04-07T07:55:59;100905.19;;;6.99;100.00
51359;BME280;37448;51.588;7.248;2023-04-07T07:58:00;100900.00;;;6.99;100.00
51359;BME280;37448;51.588;7.248;2023-04-07T08:00:01;100902.59;;;6.99;100.00
51359;BME280;37448;51.588;7.248;2023-04-07T08:02:13;100910.41;;;6.91;100.00
51359;BME280;37448;51.588;7.248;2023-04-07T08:04:14;100919.06;;;6.98;100.00
51359;BME280;37448;51.588;7.248;2023-04-07T08:06:14;100915.56;;;6.97;100.00
51359;BME280;37448;51.588;7.248;2023-04-07T08:08:15;100918.19;;;6.94;100.00
51359;BME280;37448;51.588;7.248;2023-04-07T08:10:16;100923.38;;;6.97;100.00
51359;BME280;37448;51.588;7.248;2023-04-07T08:12:16;100923.38;;;7.02;100.00
51359;BME280;37448;51.588;7.248;2023-04-07T08:14:17;100922.50;;;7.03;100.00
51359;BME280;37448;51.588;7.248;2023-04-07T08:16:17;100931.19;;;7.00;100.00
51359;BME280;37448;51.588;7.248;2023-04-07T08:18:18;100925.09;;;7.00;100.00
51359;BME280;37448;51.588;7.248;2023-04-07T08:20:18;100933.75;;;7.02;99.93
51359;BME280;37448;51.588;7.248;2023-04-07T08:22:20;100929.41;;;7.04;100.00
51359;BME280;37448;51.588;7.248;2023-04-07T08:24:20;100931.16;;;7.07;100.00
51359;BME280;37448;51.588;7.248;2023-04-07T08:26:20;100925.06;;;7.09;100.00
51359;BME280;37448;51.588;7.248;2023-04-07T08:28:22;100924.19;;;7.10;100.00
51359;BME280;37448;51.588;7.248;2023-04-07T08:30:22;100933.75;;;7.10;100.00
51359;BME280;37448;51.588;7.248;2023-04-07T08:32:23;100932.88;;;7.12;100.00
51359;BME280;37448;51.588;7.248;2023-04-07T08:34:23;100932.84;;;7.17;100.00
51359;BME280;37448;51.588;7.248;2023-04-07T08:36:24;100943.22;;;7.22;100.00
51359;BME280;37448;51.588;7.248;2023-04-07T08:38:25;100945.84;;;7.22;100.00
51359;BME280;37448;51.588;7.248;2023-04-07T08:40:25;100938.91;;;7.24;100.00
51359;BME280;37448;51.588;7.248;2023-04-07T08:42:28;100940.63;;;7.25;100.00
51359;BME280;37448;51.588;7.248;2023-04-07T08:44:29;100948.44;;;7.26;100.00
51359;BME280;37448;51.588;7.248;2023-04-07T08:46:32;100945.00;;;7.16;99.83
51359;BME280;37448;51.588;7.248;2023-04-07T08:48:32;100952.72;;;7.32;100.00
51359;BME280;37448;51.588;7.248;2023-04-07T08:50:34;100950.13;;;7.33;100.00
51359;BME280;37448;51.588;7.248;2023-04-07T08:52:50;100951.00;;;7.36;100.00
51359;BME280;37448;51.588;7.248;2023-04-07T08:54:52;100954.47;;;7.36;99.99
51359;BME280;37448;51.588;7.248;2023-04-07T08:56:53;100953.59;;;7.37;100.00
51359;BME280;37448;51.588;7.248;2023-04-07T08:58:54;100957.06;;;7.36;99.94
51359;BME280;37448;51.588;7.248;2023-04-07T09:00:55;100959.63;;;7.45;100.00
51359;BME280;37448;51.588;7.248;2023-04-07T09:02:55;100957.84;;;7.51;100.00
51359;BME280;37448;51.588;7.248;2023-04-07T09:04:56;100961.31;;;7.56;100.00
51359;BME280;37448;51.588;7.248;2023-04-07T09:06:56;100966.50;;;7.60;100.00
51359;BME280;37448;51.588;7.248;2023-04-07T09:08:57;100965.63;;;7.61;100.00
51359;BME280;37448;51.588;7.248;2023-04-07T09:10:58;100969.97;;;7.61;100.00
51359;BME280;37448;51.588;7.248;2023-04-07T09:12:58;100966.47;;;7.65;100.00
51359;BME280;37448;51.588;7.248;2023-04-07T09:14:59;100973.41;;;7.69;100.00
51359;BME280;37448;51.588;7.248;2023-04-07T09:17:00;100975.13;;;7.70;100.00
51359;BME280;37448;51.588;7.248;2023-04-07T09:19:00;100977.78;;;7.61;98.86
51359;BME280;37448;51.588;7.248;2023-04-07T09:21:03;100975.09;;;7.76;99.63
51359;BME280;37448;51.588;7.248;2023-04-07T09:23:03;100977.66;;;7.80;99.58
51359;BME280;37448;51.588;7.248;2023-04-07T09:25:17;100975.06;;;7.80;99.66
51359;BME280;37448;51.588;7.248;2023-04-07T09:27:18;100979.41;;;7.78;99.39
51359;BME280;37448;51.588;7.248;2023-04-07T09:29:19;100975.06;;;7.80;99.12
51359;BME280;37448;51.588;7.248;2023-04-07T09:31:21;100982.00;;;7.81;98.64
51359;BME280;37448;51.588;7.248;2023-04-07T09:33:29;100975.06;;;7.80;98.62
51359;BME280;37448;51.588;7.248;2023-04-07T09:35:30;100975.91;;;7.82;98.71
51359;BME280;37448;51.588;7.248;2023-04-07T09:37:30;100970.72;;;7.86;99.39
51359;BME280;37448;51.588;7.248;2023-04-07T09:39:31;100977.66;;;7.86;99.02
51359;BME280;37448;51.588;7.248;2023-04-07T09:41:31;100975.06;;;7.86;99.16
51359;BME280;37448;51.588;7.248;2023-04-07T09:43:35;100978.50;;;7.91;98.97
51359;BME280;37448;51.588;7.248;2023-04-07T09:45:37;100977.59;;;7.94;98.60
51359;BME280;37448;51.588;7.248;2023-04-07T09:47:38;100973.25;;;7.97;98.97
51359;BME280;37448;51.588;7.248;2023-04-07T09:49:53;100968.09;;;7.89;97.82
51359;BME280;37448;51.588;7.248;2023-04-07T09:51:58;100969.81;;;7.92;96.91
51359;BME280;37448;51.588;7.248;2023-04-07T09:53:59;100976.66;;;8.05;97.10
51359;BME280;37448;51.588;7.248;2023-04-07T09:56:00;100986.19;;;8.07;96.58
51359;BME280;37448;51.588;7.248;2023-04-07T09:58:01;100987.03;;;8.15;96.69
51359;BME280;37448;51.588;7.248;2023-04-07T10:00:03;100987.13;;;7.99;95.39
51359;BME280;37448;51.588;7.248;2023-04-07T10:02:13;100984.53;;;7.98;94.22
51359;BME280;37448;51.588;7.248;2023-04-07T10:04:13;100983.59;;;8.07;94.37
51359;BME280;37448;51.588;7.248;2023-04-07T10:06:14;100989.66;;;8.12;94.97
51359;BME280;37448;51.588;7.248;2023-04-07T10:08:15;100991.38;;;8.13;96.35
51359;BME280;37448;51.588;7.248;2023-04-07T10:10:16;100992.28;;;8.02;94.75
51359;BME280;37448;51.588;7.248;2023-04-07T10:12:17;100994.94;;;7.95;93.12
51359;BME280;37448;51.588;7.248;2023-04-07T10:14:19;100997.56;;;7.93;95.08
51359;BME280;37448;51.588;7.248;2023-04-07T10:16:21;100999.34;;;7.79;94.49
51359;BME280;37448;51.588;7.248;2023-04-07T10:18:27;101001.94;;;7.79;94.00
51359;BME280;37448;51.588;7.248;2023-04-07T10:20:28;101002.00;;;7.66;93.75
51359;BME280;37448;51.588;7.248;2023-04-07T10:22:29;101002.88;;;7.56;92.76
51359;BME280;37448;51.588;7.248;2023-04-07T10:24:49;101004.63;;;7.63;93.60
51359;BME280;37448;51.588;7.248;2023-04-07T10:26:58;101006.34;;;7.61;93.88
51359;BME280;37448;51.588;7.248;2023-04-07T10:29:05;101008.00;;;7.78;95.15
51359;BME280;37448;51.588;7.248;2023-04-07T10:31:07;101009.75;;;7.77;94.76
51359;BME280;37448;51.588;7.248;2023-04-07T10:33:08;101014.97;;;7.72;94.42
51359;BME280;37448;51.588;7.248;2023-04-07T10:35:09;101014.06;;;7.81;95.40
51359;BME280;37448;51.588;7.248;2023-04-07T10:37:11;101015.81;;;7.79;95.53
51359;BME280;37448;51.588;7.248;2023-04-07T10:41:30;101018.41;;;7.81;95.05
51359;BME280;37448;51.588;7.248;2023-04-07T10:43:39;101025.44;;;7.60;92.67
51359;BME280;37448;51.588;7.248;2023-04-07T10:52:23;101030.50;;;7.91;96.39
51359;BME280;37448;51.588;7.248;2023-04-07T10:54:23;101025.31;;;7.82;94.82